Terminal Aerodrome Forecast
Issued by NWS Sterling, VA

Home | Current Version | Previous Version | Text Only | Print | Product List | Glossary On
Versions: 1 2 3 4 5 6 7 8 9 10 11 12 13
000
FTUS41 KLWX 200500
TAFCHO
TAF
KCHO 200532Z 2006/2106 00000KT 6SM BR SCT050 BKN070
     FM200900 00000KT 2SM BR BKN025
     FM201100 00000KT 2SM BR BKN015
     FM201300 00000KT P6SM SCT015 BKN050
     FM201500 VRB03KT P6SM SCT250=

USA.gov is the U.S. government's official web portal to all federal, state and local government web resources and services.